createdAt,value
2023-01-30T00:02:26.853Z,100435.53
2023-01-30T00:07:35.395Z,100440.25
2023-01-30T00:12:38.797Z,100445.66
2023-01-30T00:17:41.998Z,100437.94
2023-01-30T00:22:59.225Z,100442.06
2023-01-30T00:28:04.146Z,100430.53
2023-01-30T00:33:07.254Z,100407.06
2023-01-30T00:38:11.883Z,100397.84
2023-01-30T00:43:34.361Z,100388.59
2023-01-30T00:48:37.951Z,100374.56
2023-01-30T00:53:42.513Z,100356.72
2023-01-30T00:58:45.706Z,100335.50
2023-01-30T01:03:48.923Z,100323.81
2023-01-30T01:08:53.564Z,100314.22
2023-01-30T01:13:58.021Z,100300.88
2023-01-30T01:19:01.805Z,100274.44
2023-01-30T01:24:09.004Z,100263.69
2023-01-30T01:29:14.319Z,100247.75
2023-01-30T01:34:17.477Z,100248.94
2023-01-30T01:39:23.124Z,100224.50
2023-01-30T01:44:26.459Z,100174.50
2023-01-30T01:49:32.261Z,100169.59
2023-01-30T01:54:41.430Z,100194.06
2023-01-30T01:59:50.138Z,100208.81
2023-01-30T02:05:06.480Z,100215.91
2023-01-30T02:10:31.983Z,100203.22
2023-01-30T02:15:35.630Z,100202.84
2023-01-30T02:20:58.189Z,100175.81
2023-01-30T02:26:40.207Z,100151.63
2023-01-30T02:31:53.641Z,100119.09
2023-01-30T02:37:10.158Z,100110.38
2023-01-30T02:42:20.960Z,100098.97
2023-01-30T02:47:31.458Z,100073.13
2023-01-30T02:52:35.490Z,100052.31
2023-01-30T02:57:39.254Z,100061.13
2023-01-30T03:03:08.240Z,100053.66
2023-01-30T03:08:21.533Z,100054.22
2023-01-30T03:13:35.910Z,100045.88
2023-01-30T03:18:42.290Z,100036.31
2023-01-30T03:23:46.960Z,100039.13
2023-01-30T03:28:51.675Z,100001.88
2023-01-30T03:33:56.313Z,100014.28
2023-01-30T03:38:59.584Z,100004.44
2023-01-30T03:44:03.003Z,100010.81
2023-01-30T03:49:07.579Z,100008.53
2023-01-30T03:54:10.707Z,99975.31
2023-01-30T03:59:14.214Z,99962.03
2023-01-30T04:04:18.841Z,99956.41
2023-01-30T04:09:22.210Z,99932.81
2023-01-30T04:14:25.779Z,99923.69
2023-01-30T04:19:30.487Z,99913.16
2023-01-30T04:24:33.651Z,99915.91
2023-01-30T04:29:36.993Z,99899.34
2023-01-30T04:34:42.286Z,99893.81
2023-01-30T04:39:45.617Z,99895.38
2023-01-30T04:44:48.797Z,99893.88
2023-01-30T04:49:53.777Z,99882.41
2023-01-30T04:54:56.999Z,99873.25
2023-01-30T05:00:00.218Z,99856.31
2023-01-30T05:05:05.093Z,99824.78
2023-01-30T05:10:09.244Z,99830.47
2023-01-30T05:15:13.306Z,99816.09
2023-01-30T05:20:17.875Z,99801.94
2023-01-30T05:25:21.228Z,99775.63
2023-01-30T05:30:24.421Z,99777.72
2023-01-30T05:35:29.167Z,99757.13
2023-01-30T05:40:32.232Z,99751.66
2023-01-30T05:45:35.357Z,99767.78
2023-01-30T05:50:39.996Z,99770.28
2023-01-30T05:55:43.917Z,99757.84
2023-01-30T06:01:02.333Z,99765.06
2023-01-30T06:06:07.630Z,99760.53
2023-01-30T06:11:27.190Z,99759.13
2023-01-30T06:16:30.559Z,99756.25
2023-01-30T06:21:35.343Z,99753.69
2023-01-30T06:26:38.413Z,99752.28
2023-01-30T06:31:41.593Z,99751.75
2023-01-30T06:36:46.214Z,99747.00
2023-01-30T06:41:55.039Z,99744.91
2023-01-30T06:46:58.680Z,99752.09
2023-01-30T06:52:11.465Z,99753.84
2023-01-30T06:57:14.924Z,99739.94
2023-01-30T07:02:19.198Z,99747.50
2023-01-30T07:07:23.717Z,99750.09
2023-01-30T07:12:27.751Z,99742.44
2023-01-30T07:17:31.337Z,99730.31
2023-01-30T07:22:35.943Z,99725.25
2023-01-30T07:27:41.311Z,99744.09
2023-01-30T07:32:44.484Z,99755.09
2023-01-30T07:37:49.871Z,99759.41
2023-01-30T07:43:01.053Z,99750.63
2023-01-30T07:48:04.391Z,99746.03
2023-01-30T07:53:11.927Z,99749.94
2023-01-30T07:58:16.100Z,99748.78
2023-01-30T08:03:19.622Z,99751.47
2023-01-30T08:08:24.278Z,99747.13
2023-01-30T08:13:27.973Z,99739.00
2023-01-30T08:18:31.823Z,99742.91
2023-01-30T08:23:36.415Z,99741.41
2023-01-30T08:28:41.096Z,99758.25
2023-01-30T08:33:44.683Z,99745.16
2023-01-30T08:38:49.309Z,99750.09
2023-01-30T08:43:52.373Z,99746.38
2023-01-30T08:48:55.564Z,99740.81
2023-01-30T08:54:00.439Z,99736.03
2023-01-30T08:59:03.680Z,99724.38
2023-01-30T09:04:08.565Z,99743.38
2023-01-30T09:09:13.191Z,99723.25
2023-01-30T09:14:19.775Z,99744.25
2023-01-30T09:19:22.917Z,99735.31
2023-01-30T09:24:27.902Z,99725.38
2023-01-30T09:29:31.220Z,99714.09
2023-01-30T09:34:34.732Z,99707.38
2023-01-30T09:39:39.394Z,99726.75
2023-01-30T09:45:03.865Z,99716.22
2023-01-30T09:50:25.078Z,99733.25
2023-01-30T09:55:32.577Z,99742.34
2023-01-30T10:00:37.880Z,99725.81
2023-01-30T10:05:46.369Z,99706.94
2023-01-30T10:11:09.574Z,99714.00
2023-01-30T10:16:20.561Z,99697.97
2023-01-30T10:21:36.727Z,99716.84
2023-01-30T10:26:42.814Z,99730.06
2023-01-30T10:31:50.352Z,99733.59
2023-01-30T10:37:01.503Z,99736.88
2023-01-30T10:42:12.611Z,99740.91
2023-01-30T10:47:46.314Z,99742.91
2023-01-30T10:52:57.362Z,99724.84
2023-01-30T10:58:08.913Z,99715.53
2023-01-30T11:03:29.734Z,99709.97
2023-01-30T11:08:35.481Z,99714.00
2023-01-30T11:13:40.179Z,99707.63
2023-01-30T11:19:19.389Z,99690.63
2023-01-30T11:24:18.249Z,99679.19
2023-01-30T11:29:33.832Z,99696.53
2023-01-30T11:34:36.930Z,99683.44
2023-01-30T11:39:51.761Z,99688.22
2023-01-30T11:45:16.062Z,99668.06
2023-01-30T11:50:23.338Z,99656.38
2023-01-30T11:55:28.853Z,99660.50
2023-01-30T12:00:40.927Z,99649.03
2023-01-30T12:05:47.923Z,99644.28
2023-01-30T12:10:55.346Z,99640.41
2023-01-30T12:16:22.639Z,99628.25
2023-01-30T12:21:35.963Z,99616.88
2023-01-30T12:26:45.673Z,99614.09
2023-01-30T12:31:53.411Z,99618.41
2023-01-30T12:37:09.194Z,99613.91
2023-01-30T12:42:27.718Z,99620.97
2023-01-30T12:47:47.770Z,99606.97
2023-01-30T12:53:06.285Z,99591.47
2023-01-30T12:58:16.378Z,99596.09
2023-01-30T13:03:27.976Z,99590.50
2023-01-30T13:08:55.505Z,99583.28
2023-01-30T13:14:07.013Z,99585.09
2023-01-30T13:19:25.334Z,99576.66
2023-01-30T13:24:42.488Z,99588.88
2023-01-30T13:29:47.049Z,99586.63
2023-01-30T13:34:54.640Z,99591.69
2023-01-30T13:40:04.270Z,99591.97
2023-01-30T13:45:16.287Z,99590.31
2023-01-30T13:50:35.799Z,99596.03
2023-01-30T13:55:48.715Z,99601.50
2023-01-30T14:00:56.009Z,99594.75
2023-01-30T14:06:15.713Z,99598.84
2023-01-30T14:11:33.969Z,99607.31
2023-01-30T14:16:45.675Z,99587.31
2023-01-30T14:21:58.147Z,99594.06
2023-01-30T14:27:03.985Z,99605.53
2023-01-30T14:32:54.982Z,99618.09
2023-01-30T14:38:14.935Z,99634.75
2023-01-30T14:43:53.281Z,99662.78
2023-01-30T14:49:05.216Z,99673.06
2023-01-30T14:54:23.438Z,99674.84
2023-01-30T14:59:32.258Z,99685.63
2023-01-30T15:04:43.601Z,99679.94
2023-01-30T15:09:55.153Z,99680.69
2023-01-30T15:15:12.533Z,99699.00
2023-01-30T15:20:35.698Z,99703.72
2023-01-30T15:25:53.111Z,99697.47
2023-01-30T15:31:05.581Z,99713.16
2023-01-30T15:36:20.600Z,99714.13
2023-01-30T15:41:28.568Z,99721.78
2023-01-30T15:46:44.740Z,99723.44
2023-01-30T15:51:49.463Z,99726.50
2023-01-30T15:57:00.839Z,99720.63
2023-01-30T16:02:08.148Z,99721.06
2023-01-30T16:07:19.515Z,99737.59
2023-01-30T16:12:28.709Z,99741.38
2023-01-30T16:17:36.514Z,99764.50
2023-01-30T16:22:49.524Z,99779.50
2023-01-30T16:27:55.347Z,99795.19
2023-01-30T16:33:10.614Z,99806.00
2023-01-30T16:38:37.380Z,99805.53
2023-01-30T16:43:44.468Z,99821.53
2023-01-30T16:48:52.985Z,99830.56
2023-01-30T16:54:06.161Z,99846.72
2023-01-30T16:59:23.405Z,99834.84
2023-01-30T17:04:36.798Z,99845.22
2023-01-30T17:09:43.685Z,99859.41
2023-01-30T17:14:50.354Z,99863.75
2023-01-30T17:20:00.481Z,99879.84
2023-01-30T17:25:06.475Z,99892.47
2023-01-30T17:30:19.345Z,99903.78
2023-01-30T17:35:26.141Z,99912.44
2023-01-30T17:40:37.967Z,99926.97
2023-01-30T17:45:42.888Z,99958.84
2023-01-30T17:50:46.734Z,99965.81
2023-01-30T17:55:53.082Z,99958.56
2023-01-30T18:00:57.985Z,99976.91
2023-01-30T18:06:07.180Z,99975.16
2023-01-30T18:11:12.107Z,99978.94
2023-01-30T18:16:26.950Z,99991.13
2023-01-30T18:21:30.732Z,99994.53
2023-01-30T18:26:35.360Z,100018.41
2023-01-30T18:31:41.217Z,100018.81
2023-01-30T18:36:44.675Z,100018.22
2023-01-30T18:41:47.898Z,100029.97
2023-01-30T18:46:52.879Z,100065.19
2023-01-30T18:51:56.343Z,100074.25
2023-01-30T18:56:59.572Z,100074.16
2023-01-30T19:02:04.116Z,100082.09
2023-01-30T19:07:07.422Z,100083.69
2023-01-30T19:12:34.254Z,100083.50
2023-01-30T19:17:39.550Z,100106.47
2023-01-30T19:22:43.044Z,100103.22
2023-01-30T19:27:46.581Z,100135.53
2023-01-30T19:32:53.553Z,100125.34
2023-01-30T19:38:00.373Z,100142.78
2023-01-30T19:43:10.858Z,100154.41
2023-01-30T19:48:16.873Z,100146.63
2023-01-30T19:53:20.259Z,100152.84
2023-01-30T19:58:23.632Z,100165.22
2023-01-30T20:03:28.515Z,100180.56
2023-01-30T20:08:32.950Z,100178.91
2023-01-30T20:13:36.995Z,100193.78
2023-01-30T20:18:46.454Z,100183.97
2023-01-30T20:23:52.700Z,100181.81
2023-01-30T20:28:56.922Z,100191.03
2023-01-30T20:34:02.163Z,100192.28
2023-01-30T20:39:07.580Z,100199.84
2023-01-30T20:44:15.672Z,100218.78
2023-01-30T20:49:21.555Z,100218.16
2023-01-30T20:54:25.258Z,100220.44
2023-01-30T20:59:29.155Z,100240.06
2023-01-30T21:04:33.851Z,100243.25
2023-01-30T21:09:37.205Z,100268.09
2023-01-30T21:14:41.369Z,100252.44
2023-01-30T21:19:46.161Z,100264.69
2023-01-30T21:24:49.929Z,100274.88
2023-01-30T21:29:53.124Z,100289.72
2023-01-30T21:34:58.175Z,100292.22
2023-01-30T21:40:18.582Z,100305.72
2023-01-30T21:45:32.331Z,100323.72
2023-01-30T21:50:36.907Z,100329.72
2023-01-30T21:55:43.703Z,100335.84
2023-01-30T22:00:47.176Z,100345.78
2023-01-30T22:05:51.670Z,100346.94
2023-01-30T22:11:05.833Z,100351.00
2023-01-30T22:16:11.478Z,100363.25
2023-01-30T22:21:18.664Z,100366.56
2023-01-30T22:26:25.545Z,100367.50
2023-01-30T22:31:31.889Z,100379.34
2023-01-30T22:36:41.394Z,100389.84
2023-01-30T22:41:44.967Z,100400.97
2023-01-30T22:46:51.128Z,100399.09
2023-01-30T22:51:55.894Z,100407.72
2023-01-30T22:56:59.638Z,100414.69
2023-01-30T23:02:03.479Z,100412.16
2023-01-30T23:07:08.681Z,100404.38
2023-01-30T23:12:41.416Z,100416.47
2023-01-30T23:18:02.432Z,100420.72
2023-01-30T23:23:08.006Z,100430.91
2023-01-30T23:28:11.464Z,100441.09
2023-01-30T23:33:15.167Z,100443.03
2023-01-30T23:38:20.176Z,100439.81
2023-01-30T23:43:23.414Z,100437.41
2023-01-30T23:48:26.667Z,100432.91
2023-01-30T23:53:31.302Z,100446.28
2023-01-30T23:58:35.176Z,100452.88
